Chachapoyas, Peru
Current Conditions -  °F | °C
As of 3:00 PM on Saturday 25 Oct 2014 (Local Time) from SPJR Reporting Station
Broken Clouds Broken Clouds  
Wind Chill: 18°   Ceiling: 4300
Heat Index: 18°   Visibility: 6mi
Dew Point:   Wind: 12mph
Humidity: 56%   Direction: 170°S
Pressure: 30.33"   Gusts: NA
Location:  6.23°S, 77.87°W
Report Text: SPJR 252000Z 17010KT 9999 SCT030 BKN043 18/09 Q1027 RMK PP000
Loading
Personal Weather Stations






























Interactive Weather Map
Tropical Storm Tracking
New forecast layout! Learn more

10-Day Weather Forecast

Advertisements
Track Severe Weather on mobile